sensor_id;sensor_type;location;lat;lon;timestamp;temperature;humidity
54898;DHT22;40800;52.704;6.398;2022-07-10T00:02:05;13.30;99.90
54898;DHT22;40800;52.704;6.398;2022-07-10T00:04:30;13.30;99.90
54898;DHT22;40800;52.704;6.398;2022-07-10T00:06:56;13.30;99.90
54898;DHT22;40800;52.704;6.398;2022-07-10T00:09:23;13.60;99.90
54898;DHT22;40800;52.704;6.398;2022-07-10T00:11:49;13.30;99.90
54898;DHT22;40800;52.704;6.398;2022-07-10T00:14:15;13.20;99.90
54898;DHT22;40800;52.704;6.398;2022-07-10T00:16:41;13.30;99.90
54898;DHT22;40800;52.704;6.398;2022-07-10T00:19:06;13.20;99.90
54898;DHT22;40800;52.704;6.398;2022-07-10T00:21:32;13.50;99.90
54898;DHT22;40800;52.704;6.398;2022-07-10T00:23:57;13.30;99.90
54898;DHT22;40800;52.704;6.398;2022-07-10T00:26:23;12.90;99.90
54898;DHT22;40800;52.704;6.398;2022-07-10T00:28:48;12.80;99.90
54898;DHT22;40800;52.704;6.398;2022-07-10T00:31:14;13.10;99.90
54898;DHT22;40800;52.704;6.398;2022-07-10T00:33:39;12.90;99.90
54898;DHT22;40800;52.704;6.398;2022-07-10T00:36:05;12.90;99.90
54898;DHT22;40800;52.704;6.398;2022-07-10T00:38:31;13.00;99.90
54898;DHT22;40800;52.704;6.398;2022-07-10T00:40:57;13.00;99.90
54898;DHT22;40800;52.704;6.398;2022-07-10T00:43:22;13.30;99.90
54898;DHT22;40800;52.704;6.398;2022-07-10T00:45:48;13.10;99.90
54898;DHT22;40800;52.704;6.398;2022-07-10T00:48:14;13.00;99.90
54898;DHT22;40800;52.704;6.398;2022-07-10T00:50:40;13.00;99.90
54898;DHT22;40800;52.704;6.398;2022-07-10T00:53:05;12.90;99.90
54898;DHT22;40800;52.704;6.398;2022-07-10T00:55:32;12.90;99.90
54898;DHT22;40800;52.704;6.398;2022-07-10T00:57:58;12.90;99.90
54898;DHT22;40800;52.704;6.398;2022-07-10T01:00:24;13.20;99.90
54898;DHT22;40800;52.704;6.398;2022-07-10T01:02:49;12.70;99.90
54898;DHT22;40800;52.704;6.398;2022-07-10T01:05:15;12.80;99.90
54898;DHT22;40800;52.704;6.398;2022-07-10T01:07:40;13.60;99.90
54898;DHT22;40800;52.704;6.398;2022-07-10T01:10:06;12.70;99.90
54898;DHT22;40800;52.704;6.398;2022-07-10T01:12:32;12.60;99.90
54898;DHT22;40800;52.704;6.398;2022-07-10T01:14:58;12.50;99.90
54898;DHT22;40800;52.704;6.398;2022-07-10T01:17:23;12.40;99.90
54898;DHT22;40800;52.704;6.398;2022-07-10T01:19:49;12.30;99.90
54898;DHT22;40800;52.704;6.398;2022-07-10T01:22:15;12.60;99.90
54898;DHT22;40800;52.704;6.398;2022-07-10T01:24:40;12.20;99.90
54898;DHT22;40800;52.704;6.398;2022-07-10T01:27:06;13.00;99.90
54898;DHT22;40800;52.704;6.398;2022-07-10T01:29:32;12.10;99.90
54898;DHT22;40800;52.704;6.398;2022-07-10T01:31:57;12.60;99.90
54898;DHT22;40800;52.704;6.398;2022-07-10T01:34:26;12.00;99.90
54898;DHT22;40800;52.704;6.398;2022-07-10T01:36:51;13.00;99.90
54898;DHT22;40800;52.704;6.398;2022-07-10T01:39:17;12.50;99.90
54898;DHT22;40800;52.704;6.398;2022-07-10T01:41:43;12.90;99.90
54898;DHT22;40800;52.704;6.398;2022-07-10T01:44:08;13.20;99.90
54898;DHT22;40800;52.704;6.398;2022-07-10T01:46:34;13.20;99.90
54898;DHT22;40800;52.704;6.398;2022-07-10T01:48:59;12.30;99.90
54898;DHT22;40800;52.704;6.398;2022-07-10T01:51:25;13.10;99.90
54898;DHT22;40800;52.704;6.398;2022-07-10T01:53:50;11.90;99.90
54898;DHT22;40800;52.704;6.398;2022-07-10T01:56:16;11.90;99.90
54898;DHT22;40800;52.704;6.398;2022-07-10T01:58:42;11.80;99.90
54898;DHT22;40800;52.704;6.398;2022-07-10T02:01:08;13.10;99.90
54898;DHT22;40800;52.704;6.398;2022-07-10T02:03:34;12.80;99.90
54898;DHT22;40800;52.704;6.398;2022-07-10T02:06:17;11.70;99.90
54898;DHT22;40800;52.704;6.398;2022-07-10T02:08:43;13.20;99.90
54898;DHT22;40800;52.704;6.398;2022-07-10T02:11:09;13.10;99.90
54898;DHT22;40800;52.704;6.398;2022-07-10T02:13:35;13.20;99.90
54898;DHT22;40800;52.704;6.398;2022-07-10T02:16:00;11.60;99.90
54898;DHT22;40800;52.704;6.398;2022-07-10T02:18:26;12.60;99.90
54898;DHT22;40800;52.704;6.398;2022-07-10T02:20:52;11.80;99.90
54898;DHT22;40800;52.704;6.398;2022-07-10T02:23:17;11.70;99.90
54898;DHT22;40800;52.704;6.398;2022-07-10T02:25:43;11.60;99.90
54898;DHT22;40800;52.704;6.398;2022-07-10T02:28:08;13.20;99.90
54898;DHT22;40800;52.704;6.398;2022-07-10T02:30:34;12.90;99.90
54898;DHT22;40800;52.704;6.398;2022-07-10T02:32:59;12.80;99.90
54898;DHT22;40800;52.704;6.398;2022-07-10T02:35:25;11.50;99.90
54898;DHT22;40800;52.704;6.398;2022-07-10T02:37:51;11.40;99.90
54898;DHT22;40800;52.704;6.398;2022-07-10T02:40:16;11.60;99.90
54898;DHT22;40800;52.704;6.398;2022-07-10T02:42:42;13.00;99.90
54898;DHT22;40800;52.704;6.398;2022-07-10T02:45:07;11.60;99.90
54898;DHT22;40800;52.704;6.398;2022-07-10T02:47:33;11.70;99.90
54898;DHT22;40800;52.704;6.398;2022-07-10T02:49:59;13.30;99.90
54898;DHT22;40800;52.704;6.398;2022-07-10T02:52:24;12.60;99.90
54898;DHT22;40800;52.704;6.398;2022-07-10T02:54:50;10.90;99.90
54898;DHT22;40800;52.704;6.398;2022-07-10T02:57:16;12.50;99.90
54898;DHT22;40800;52.704;6.398;2022-07-10T02:59:41;11.40;99.90
54898;DHT22;40800;52.704;6.398;2022-07-10T03:02:07;11.60;99.90
54898;DHT22;40800;52.704;6.398;2022-07-10T03:04:33;11.40;99.90
54898;DHT22;40800;52.704;6.398;2022-07-10T03:06:58;12.90;99.90
54898;DHT22;40800;52.704;6.398;2022-07-10T03:09:24;12.30;99.90
54898;DHT22;40800;52.704;6.398;2022-07-10T03:11:50;11.70;99.90
54898;DHT22;40800;52.704;6.398;2022-07-10T03:14:16;11.20;99.90
54898;DHT22;40800;52.704;6.398;2022-07-10T03:16:42;11.20;99.90
54898;DHT22;40800;52.704;6.398;2022-07-10T03:19:08;12.40;99.90
54898;DHT22;40800;52.704;6.398;2022-07-10T03:21:34;12.30;99.90
54898;DHT22;40800;52.704;6.398;2022-07-10T03:23:59;10.80;99.90
54898;DHT22;40800;52.704;6.398;2022-07-10T03:26:25;10.90;99.90
54898;DHT22;40800;52.704;6.398;2022-07-10T03:28:50;10.90;99.90
54898;DHT22;40800;52.704;6.398;2022-07-10T03:31:16;12.60;99.90
54898;DHT22;40800;52.704;6.398;2022-07-10T03:33:41;12.60;99.90
54898;DHT22;40800;52.704;6.398;2022-07-10T03:36:07;11.40;99.90
54898;DHT22;40800;52.704;6.398;2022-07-10T03:38:32;12.80;99.90
54898;DHT22;40800;52.704;6.398;2022-07-10T03:40:58;13.10;99.90
54898;DHT22;40800;52.704;6.398;2022-07-10T03:43:23;12.40;99.90
54898;DHT22;40800;52.704;6.398;2022-07-10T03:45:50;11.60;99.90
54898;DHT22;40800;52.704;6.398;2022-07-10T03:48:16;12.20;99.90
54898;DHT22;40800;52.704;6.398;2022-07-10T03:50:41;11.80;99.90
54898;DHT22;40800;52.704;6.398;2022-07-10T03:53:07;13.30;99.90
54898;DHT22;40800;52.704;6.398;2022-07-10T03:55:33;11.80;99.90
54898;DHT22;40800;52.704;6.398;2022-07-10T03:57:58;12.90;99.90
54898;DHT22;40800;52.704;6.398;2022-07-10T04:00:28;12.60;99.90
54898;DHT22;40800;52.704;6.398;2022-07-10T04:02:54;13.30;99.90
54898;DHT22;40800;52.704;6.398;2022-07-10T04:05:20;11.90;99.90
54898;DHT22;40800;52.704;6.398;2022-07-10T04:07:46;12.60;99.90
54898;DHT22;40800;52.704;6.398;2022-07-10T04:10:11;13.10;99.90
54898;DHT22;40800;52.704;6.398;2022-07-10T04:12:37;13.30;99.90
54898;DHT22;40800;52.704;6.398;2022-07-10T04:15:03;12.20;99.90
54898;DHT22;40800;52.704;6.398;2022-07-10T04:17:28;12.30;99.90
54898;DHT22;40800;52.704;6.398;2022-07-10T04:19:54;12.30;99.90
54898;DHT22;40800;52.704;6.398;2022-07-10T04:22:20;13.20;99.90
54898;DHT22;40800;52.704;6.398;2022-07-10T04:24:45;12.50;99.90
54898;DHT22;40800;52.704;6.398;2022-07-10T04:27:11;13.50;99.90
54898;DHT22;40800;52.704;6.398;2022-07-10T04:29:36;12.60;99.90
54898;DHT22;40800;52.704;6.398;2022-07-10T04:32:02;12.90;99.90
54898;DHT22;40800;52.704;6.398;2022-07-10T04:34:27;12.80;99.90
54898;DHT22;40800;52.704;6.398;2022-07-10T04:36:53;12.90;99.90
54898;DHT22;40800;52.704;6.398;2022-07-10T04:39:18;12.90;99.90
54898;DHT22;40800;52.704;6.398;2022-07-10T04:41:44;13.00;99.90
54898;DHT22;40800;52.704;6.398;2022-07-10T04:44:10;13.00;99.90
54898;DHT22;40800;52.704;6.398;2022-07-10T04:46:35;13.30;99.90
54898;DHT22;40800;52.704;6.398;2022-07-10T04:49:01;13.50;99.90
54898;DHT22;40800;52.704;6.398;2022-07-10T04:51:26;13.20;99.90
54898;DHT22;40800;52.704;6.398;2022-07-10T04:53:52;13.50;99.90
54898;DHT22;40800;52.704;6.398;2022-07-10T04:56:18;13.30;99.90
54898;DHT22;40800;52.704;6.398;2022-07-10T04:58:43;14.00;99.90
54898;DHT22;40800;52.704;6.398;2022-07-10T05:01:08;13.40;99.90
54898;DHT22;40800;52.704;6.398;2022-07-10T05:03:34;13.40;99.90
54898;DHT22;40800;52.704;6.398;2022-07-10T05:06:00;13.50;99.90
54898;DHT22;40800;52.704;6.398;2022-07-10T05:08:25;13.60;99.90
54898;DHT22;40800;52.704;6.398;2022-07-10T05:10:51;13.60;99.90
54898;DHT22;40800;52.704;6.398;2022-07-10T05:13:16;13.70;99.90
54898;DHT22;40800;52.704;6.398;2022-07-10T05:15:42;13.70;99.90
54898;DHT22;40800;52.704;6.398;2022-07-10T05:18:07;14.10;99.90
54898;DHT22;40800;52.704;6.398;2022-07-10T05:20:33;13.90;99.90
54898;DHT22;40800;52.704;6.398;2022-07-10T05:23:00;14.70;99.90
54898;DHT22;40800;52.704;6.398;2022-07-10T05:25:26;14.00;99.90
54898;DHT22;40800;52.704;6.398;2022-07-10T05:27:55;13.80;99.90
54898;DHT22;40800;52.704;6.398;2022-07-10T05:30:20;13.90;99.90
54898;DHT22;40800;52.704;6.398;2022-07-10T05:32:46;14.00;99.90
54898;DHT22;40800;52.704;6.398;2022-07-10T05:35:13;14.00;99.90
54898;DHT22;40800;52.704;6.398;2022-07-10T05:37:38;14.20;99.90
54898;DHT22;40800;52.704;6.398;2022-07-10T05:40:04;14.20;99.90
54898;DHT22;40800;52.704;6.398;2022-07-10T05:42:30;14.30;99.90
54898;DHT22;40800;52.704;6.398;2022-07-10T05:44:55;14.20;99.90
54898;DHT22;40800;52.704;6.398;2022-07-10T05:47:21;14.20;99.90
54898;DHT22;40800;52.704;6.398;2022-07-10T05:49:46;14.30;99.90
54898;DHT22;40800;52.704;6.398;2022-07-10T05:52:12;14.80;99.90
54898;DHT22;40800;52.704;6.398;2022-07-10T05:54:38;14.30;99.90
54898;DHT22;40800;52.704;6.398;2022-07-10T05:57:03;14.30;99.90
54898;DHT22;40800;52.704;6.398;2022-07-10T05:59:32;14.40;99.90
54898;DHT22;40800;52.704;6.398;2022-07-10T06:01:58;14.90;99.90
54898;DHT22;40800;52.704;6.398;2022-07-10T06:04:23;14.60;99.90
54898;DHT22;40800;52.704;6.398;2022-07-10T06:06:49;14.70;99.90
54898;DHT22;40800;52.704;6.398;2022-07-10T06:09:14;14.80;99.90
54898;DHT22;40800;52.704;6.398;2022-07-10T06:11:40;15.20;99.90
54898;DHT22;40800;52.704;6.398;2022-07-10T06:14:07;14.90;99.90
54898;DHT22;40800;52.704;6.398;2022-07-10T06:16:32;14.90;99.90
54898;DHT22;40800;52.704;6.398;2022-07-10T06:18:58;14.80;99.90
54898;DHT22;40800;52.704;6.398;2022-07-10T06:21:23;15.00;99.90
54898;DHT22;40800;52.704;6.398;2022-07-10T06:23:49;15.20;99.90
54898;DHT22;40800;52.704;6.398;2022-07-10T06:26:15;15.00;99.90
54898;DHT22;40800;52.704;6.398;2022-07-10T06:28:40;15.10;99.90
54898;DHT22;40800;52.704;6.398;2022-07-10T06:31:06;15.10;99.90
54898;DHT22;40800;52.704;6.398;2022-07-10T06:33:32;15.10;99.90
54898;DHT22;40800;52.704;6.398;2022-07-10T06:35:57;15.20;99.90
54898;DHT22;40800;52.704;6.398;2022-07-10T06:38:23;15.20;99.90
54898;DHT22;40800;52.704;6.398;2022-07-10T06:40:49;15.10;99.90
54898;DHT22;40800;52.704;6.398;2022-07-10T06:43:15;15.20;99.90
54898;DHT22;40800;52.704;6.398;2022-07-10T06:45:40;15.10;99.90
54898;DHT22;40800;52.704;6.398;2022-07-10T06:48:07;15.20;99.90
54898;DHT22;40800;52.704;6.398;2022-07-10T06:50:32;15.20;99.90
54898;DHT22;40800;52.704;6.398;2022-07-10T06:53:00;15.70;99.90
54898;DHT22;40800;52.704;6.398;2022-07-10T06:55:26;15.00;99.90
54898;DHT22;40800;52.704;6.398;2022-07-10T06:57:51;14.90;99.90
54898;DHT22;40800;52.704;6.398;2022-07-10T07:00:17;14.90;99.90
54898;DHT22;40800;52.704;6.398;2022-07-10T07:02:43;14.90;99.90
54898;DHT22;40800;52.704;6.398;2022-07-10T07:05:08;14.80;99.90
54898;DHT22;40800;52.704;6.398;2022-07-10T07:07:34;14.90;99.90
54898;DHT22;40800;52.704;6.398;2022-07-10T07:10:00;15.10;99.90
54898;DHT22;40800;52.704;6.398;2022-07-10T07:12:26;15.20;99.90
54898;DHT22;40800;52.704;6.398;2022-07-10T07:14:52;15.20;99.90
54898;DHT22;40800;52.704;6.398;2022-07-10T07:17:17;15.20;99.90
54898;DHT22;40800;52.704;6.398;2022-07-10T07:19:51;15.20;99.90
54898;DHT22;40800;52.704;6.398;2022-07-10T07:22:35;15.30;99.90
54898;DHT22;40800;52.704;6.398;2022-07-10T07:25:19;15.30;99.90
54898;DHT22;40800;52.704;6.398;2022-07-10T07:27:45;15.40;99.90
54898;DHT22;40800;52.704;6.398;2022-07-10T07:30:11;15.40;99.90
54898;DHT22;40800;52.704;6.398;2022-07-10T07:32:37;15.40;99.90
54898;DHT22;40800;52.704;6.398;2022-07-10T07:35:04;15.50;99.90
54898;DHT22;40800;52.704;6.398;2022-07-10T07:40:01;15.60;99.90
54898;DHT22;40800;52.704;6.398;2022-07-10T07:42:27;15.50;99.90
54898;DHT22;40800;52.704;6.398;2022-07-10T07:44:52;15.60;99.90
54898;DHT22;40800;52.704;6.398;2022-07-10T07:47:18;15.60;99.90
54898;DHT22;40800;52.704;6.398;2022-07-10T07:49:43;15.70;99.90
54898;DHT22;40800;52.704;6.398;2022-07-10T07:52:09;15.60;99.90
54898;DHT22;40800;52.704;6.398;2022-07-10T07:54:34;15.50;99.90
54898;DHT22;40800;52.704;6.398;2022-07-10T07:57:00;15.60;99.90
54898;DHT22;40800;52.704;6.398;2022-07-10T07:59:25;15.70;99.90
54898;DHT22;40800;52.704;6.398;2022-07-10T08:01:51;15.70;99.90
54898;DHT22;40800;52.704;6.398;2022-07-10T08:04:17;16.30;99.90
54898;DHT22;40800;52.704;6.398;2022-07-10T08:06:42;15.70;99.90
54898;DHT22;40800;52.704;6.398;2022-07-10T08:09:08;16.10;99.90
54898;DHT22;40800;52.704;6.398;2022-07-10T08:11:33;16.00;99.90
54898;DHT22;40800;52.704;6.398;2022-07-10T08:13:59;15.50;99.90
54898;DHT22;40800;52.704;6.398;2022-07-10T08:16:24;15.30;99.90
54898;DHT22;40800;52.704;6.398;2022-07-10T08:18:50;15.40;99.90
54898;DHT22;40800;52.704;6.398;2022-07-10T08:21:15;15.40;99.90
54898;DHT22;40800;52.704;6.398;2022-07-10T08:23:41;15.40;99.90
54898;DHT22;40800;52.704;6.398;2022-07-10T08:26:06;15.10;99.90
54898;DHT22;40800;52.704;6.398;2022-07-10T08:28:32;15.10;99.90
54898;DHT22;40800;52.704;6.398;2022-07-10T08:30:57;14.80;99.90
54898;DHT22;40800;52.704;6.398;2022-07-10T08:33:23;15.00;99.90
54898;DHT22;40800;52.704;6.398;2022-07-10T08:35:48;15.10;99.90
54898;DHT22;40800;52.704;6.398;2022-07-10T08:38:14;15.00;99.90
54898;DHT22;40800;52.704;6.398;2022-07-10T08:40:39;15.00;99.90
54898;DHT22;40800;52.704;6.398;2022-07-10T08:43:10;15.30;99.90
54898;DHT22;40800;52.704;6.398;2022-07-10T08:45:36;15.20;99.90
54898;DHT22;40800;52.704;6.398;2022-07-10T08:48:02;15.10;99.90
54898;DHT22;40800;52.704;6.398;2022-07-10T08:50:35;15.20;99.90
54898;DHT22;40800;52.704;6.398;2022-07-10T08:55:31;15.20;99.90
54898;DHT22;40800;52.704;6.398;2022-07-10T08:57:56;15.30;99.90
54898;DHT22;40800;52.704;6.398;2022-07-10T09:00:24;15.40;99.90
54898;DHT22;40800;52.704;6.398;2022-07-10T09:02:54;15.40;99.90
54898;DHT22;40800;52.704;6.398;2022-07-10T09:05:20;15.30;99.90
54898;DHT22;40800;52.704;6.398;2022-07-10T09:07:46;15.30;99.90
54898;DHT22;40800;52.704;6.398;2022-07-10T09:10:11;15.10;99.90
54898;DHT22;40800;52.704;6.398;2022-07-10T09:15:18;15.10;99.90
54898;DHT22;40800;52.704;6.398;2022-07-10T09:17:57;15.40;99.90
54898;DHT22;40800;52.704;6.398;2022-07-10T09:20:24;15.40;99.90
54898;DHT22;40800;52.704;6.398;2022-07-10T09:22:50;15.20;99.90
54898;DHT22;40800;52.704;6.398;2022-07-10T09:25:15;15.30;99.90
54898;DHT22;40800;52.704;6.398;2022-07-10T09:27:50;15.60;99.90
54898;DHT22;40800;52.704;6.398;2022-07-10T09:30:22;15.70;99.90
54898;DHT22;40800;52.704;6.398;2022-07-10T09:33:14;15.70;99.90
54898;DHT22;40800;52.704;6.398;2022-07-10T09:35:53;15.80;99.90
54898;DHT22;40800;52.704;6.398;2022-07-10T09:41:11;16.40;99.90
54898;DHT22;40800;52.704;6.398;2022-07-10T09:43:43;16.60;99.90
54898;DHT22;40800;52.704;6.398;2022-07-10T09:46:10;16.70;99.90
54898;DHT22;40800;52.704;6.398;2022-07-10T09:48:36;17.30;99.90
54898;DHT22;40800;52.704;6.398;2022-07-10T09:51:01;17.20;99.90
54898;DHT22;40800;52.704;6.398;2022-07-10T09:53:27;17.30;99.90
54898;DHT22;40800;52.704;6.398;2022-07-10T09:55:53;17.40;99.90
54898;DHT22;40800;52.704;6.398;2022-07-10T09:58:20;17.60;99.90
54898;DHT22;40800;52.704;6.398;2022-07-10T10:00:51;17.10;99.90
54898;DHT22;40800;52.704;6.398;2022-07-10T10:03:17;17.20;99.90
54898;DHT22;40800;52.704;6.398;2022-07-10T10:11:15;16.70;99.90
54898;DHT22;40800;52.704;6.398;2022-07-10T10:13:42;16.70;99.90
54898;DHT22;40800;52.704;6.398;2022-07-10T10:16:08;16.70;99.90
54898;DHT22;40800;52.704;6.398;2022-07-10T10:18:34;16.90;99.90
54898;DHT22;40800;52.704;6.398;2022-07-10T10:21:02;17.20;99.90
54898;DHT22;40800;52.704;6.398;2022-07-10T10:23:29;17.40;99.90
54898;DHT22;40800;52.704;6.398;2022-07-10T10:25:56;17.60;99.90
54898;DHT22;40800;52.704;6.398;2022-07-10T10:28:22;17.80;99.90
54898;DHT22;40800;52.704;6.398;2022-07-10T10:30:51;18.30;99.90
54898;DHT22;40800;52.704;6.398;2022-07-10T10:35:55;17.60;99.90
54898;DHT22;40800;52.704;6.398;2022-07-10T10:38:21;17.60;99.90
54898;DHT22;40800;52.704;6.398;2022-07-10T10:40:47;17.60;99.90
54898;DHT22;40800;52.704;6.398;2022-07-10T10:45:45;17.20;99.90
54898;DHT22;40800;52.704;6.398;2022-07-10T10:48:12;16.80;99.90
54898;DHT22;40800;52.704;6.398;2022-07-10T10:53:14;17.10;99.90
54898;DHT22;40800;52.704;6.398;2022-07-10T10:55:40;17.60;99.90
54898;DHT22;40800;52.704;6.398;2022-07-10T10:58:15;18.40;99.90
54898;DHT22;40800;52.704;6.398;2022-07-10T11:00:43;18.20;99.90
54898;DHT22;40800;52.704;6.398;2022-07-10T11:03:12;18.80;99.90
54898;DHT22;40800;52.704;6.398;2022-07-10T11:05:38;19.10;99.90
54898;DHT22;40800;52.704;6.398;2022-07-10T11:08:06;19.60;99.90
54898;DHT22;40800;52.704;6.398;2022-07-10T11:10:43;19.70;99.90
54898;DHT22;40800;52.704;6.398;2022-07-10T11:13:17;19.30;99.90
54898;DHT22;40800;52.704;6.398;2022-07-10T11:15:47;18.50;99.90
54898;DHT22;40800;52.704;6.398;2022-07-10T11:18:19;18.10;99.90
54898;DHT22;40800;52.704;6.398;2022-07-10T11:20:48;17.60;99.90
54898;DHT22;40800;52.704;6.398;2022-07-10T11:23:29;17.50;99.90
54898;DHT22;40800;52.704;6.398;2022-07-10T11:31:03;17.70;99.90
54898;DHT22;40800;52.704;6.398;2022-07-10T11:33:29;18.10;99.90
54898;DHT22;40800;52.704;6.398;2022-07-10T11:36:03;18.60;99.90
54898;DHT22;40800;52.704;6.398;2022-07-10T11:38:34;19.00;99.90
54898;DHT22;40800;52.704;6.398;2022-07-10T11:41:00;19.70;99.90
54898;DHT22;40800;52.704;6.398;2022-07-10T11:43:26;19.60;99.90
54898;DHT22;40800;52.704;6.398;2022-07-10T11:45:52;19.20;99.90
54898;DHT22;40800;52.704;6.398;2022-07-10T11:48:24;18.60;99.90
54898;DHT22;40800;52.704;6.398;2022-07-10T11:50:50;18.50;99.90
54898;DHT22;40800;52.704;6.398;2022-07-10T11:53:22;18.10;99.90
54898;DHT22;40800;52.704;6.398;2022-07-10T11:55:48;18.00;99.90
54898;DHT22;40800;52.704;6.398;2022-07-10T11:58:18;17.70;99.90
54898;DHT22;40800;52.704;6.398;2022-07-10T12:00:43;17.70;99.90
54898;DHT22;40800;52.704;6.398;2022-07-10T12:03:19;17.80;99.90
54898;DHT22;40800;52.704;6.398;2022-07-10T12:05:45;17.90;99.90
54898;DHT22;40800;52.704;6.398;2022-07-10T12:08:11;18.00;99.90
54898;DHT22;40800;52.704;6.398;2022-07-10T12:10:38;18.10;99.90
54898;DHT22;40800;52.704;6.398;2022-07-10T12:13:07;18.50;99.90
54898;DHT22;40800;52.704;6.398;2022-07-10T12:15:40;18.80;99.90
54898;DHT22;40800;52.704;6.398;2022-07-10T12:18:14;19.00;99.90
54898;DHT22;40800;52.704;6.398;2022-07-10T12:20:40;19.10;99.90
54898;DHT22;40800;52.704;6.398;2022-07-10T12:23:11;19.10;99.90
54898;DHT22;40800;52.704;6.398;2022-07-10T12:25:37;19.00;99.90
54898;DHT22;40800;52.704;6.398;2022-07-10T12:28:03;18.90;99.90
54898;DHT22;40800;52.704;6.398;2022-07-10T12:30:38;19.00;99.90
54898;DHT22;40800;52.704;6.398;2022-07-10T12:33:11;19.20;99.90
54898;DHT22;40800;52.704;6.398;2022-07-10T12:35:57;18.90;99.90
54898;DHT22;40800;52.704;6.398;2022-07-10T12:38:29;18.90;99.90
54898;DHT22;40800;52.704;6.398;2022-07-10T12:43:33;18.70;99.90
54898;DHT22;40800;52.704;6.398;2022-07-10T12:48:33;18.20;99.90
54898;DHT22;40800;52.704;6.398;2022-07-10T12:51:18;18.00;99.90
54898;DHT22;40800;52.704;6.398;2022-07-10T12:53:47;18.00;99.90
54898;DHT22;40800;52.704;6.398;2022-07-10T12:58:53;18.30;99.90
54898;DHT22;40800;52.704;6.398;2022-07-10T13:01:18;18.20;99.90
54898;DHT22;40800;52.704;6.398;2022-07-10T13:03:44;18.00;99.90
54898;DHT22;40800;52.704;6.398;2022-07-10T13:06:29;18.00;99.90
54898;DHT22;40800;52.704;6.398;2022-07-10T13:08:55;18.00;99.90
54898;DHT22;40800;52.704;6.398;2022-07-10T13:11:21;18.50;99.90
54898;DHT22;40800;52.704;6.398;2022-07-10T13:13:47;18.60;99.90
54898;DHT22;40800;52.704;6.398;2022-07-10T13:16:13;18.40;99.90
54898;DHT22;40800;52.704;6.398;2022-07-10T13:18:38;18.30;99.90
54898;DHT22;40800;52.704;6.398;2022-07-10T13:21:07;18.30;99.90
54898;DHT22;40800;52.704;6.398;2022-07-10T13:23:33;18.70;99.90
54898;DHT22;40800;52.704;6.398;2022-07-10T13:25:58;18.50;99.90
54898;DHT22;40800;52.704;6.398;2022-07-10T13:28:24;18.60;99.90
54898;DHT22;40800;52.704;6.398;2022-07-10T13:30:50;18.50;99.90
54898;DHT22;40800;52.704;6.398;2022-07-10T13:33:16;18.40;99.90
54898;DHT22;40800;52.704;6.398;2022-07-10T13:35:41;18.50;99.90
54898;DHT22;40800;52.704;6.398;2022-07-10T13:38:07;18.60;99.90
54898;DHT22;40800;52.704;6.398;2022-07-10T13:40:33;18.60;99.90
54898;DHT22;40800;52.704;6.398;2022-07-10T13:42:59;18.90;99.90
54898;DHT22;40800;52.704;6.398;2022-07-10T13:45:25;18.40;99.90
54898;DHT22;40800;52.704;6.398;2022-07-10T13:47:55;18.80;99.90
54898;DHT22;40800;52.704;6.398;2022-07-10T13:50:21;18.80;99.90
54898;DHT22;40800;52.704;6.398;2022-07-10T13:52:46;18.80;99.90
54898;DHT22;40800;52.704;6.398;2022-07-10T13:55:12;18.80;99.90
54898;DHT22;40800;52.704;6.398;2022-07-10T13:57:38;18.80;99.90
54898;DHT22;40800;52.704;6.398;2022-07-10T14:00:04;18.70;99.90
54898;DHT22;40800;52.704;6.398;2022-07-10T14:02:29;18.90;99.90
54898;DHT22;40800;52.704;6.398;2022-07-10T14:04:55;19.00;99.90
54898;DHT22;40800;52.704;6.398;2022-07-10T14:07:21;19.20;99.90
54898;DHT22;40800;52.704;6.398;2022-07-10T14:09:46;19.50;99.90
54898;DHT22;40800;52.704;6.398;2022-07-10T14:12:12;19.50;99.90
54898;DHT22;40800;52.704;6.398;2022-07-10T14:14:37;19.50;99.90
54898;DHT22;40800;52.704;6.398;2022-07-10T14:17:03;20.20;99.90
54898;DHT22;40800;52.704;6.398;2022-07-10T14:19:29;20.60;99.90
54898;DHT22;40800;52.704;6.398;2022-07-10T14:21:54;20.70;99.90
54898;DHT22;40800;52.704;6.398;2022-07-10T14:24:20;21.00;99.90
54898;DHT22;40800;52.704;6.398;2022-07-10T14:26:45;20.70;99.90
54898;DHT22;40800;52.704;6.398;2022-07-10T14:29:12;20.40;99.90
54898;DHT22;40800;52.704;6.398;2022-07-10T14:31:38;20.30;99.90
54898;DHT22;40800;52.704;6.398;2022-07-10T14:34:03;20.40;99.90
54898;DHT22;40800;52.704;6.398;2022-07-10T14:36:30;20.40;99.90
54898;DHT22;40800;52.704;6.398;2022-07-10T14:38:55;20.40;99.90
54898;DHT22;40800;52.704;6.398;2022-07-10T14:41:24;20.50;99.90
54898;DHT22;40800;52.704;6.398;2022-07-10T14:43:50;20.40;99.90
54898;DHT22;40800;52.704;6.398;2022-07-10T14:46:16;20.40;99.90
54898;DHT22;40800;52.704;6.398;2022-07-10T14:48:42;20.60;99.90
54898;DHT22;40800;52.704;6.398;2022-07-10T14:51:07;20.40;99.90
54898;DHT22;40800;52.704;6.398;2022-07-10T14:53:33;20.40;99.90
54898;DHT22;40800;52.704;6.398;2022-07-10T14:56:00;20.10;99.90
54898;DHT22;40800;52.704;6.398;2022-07-10T14:58:26;20.10;99.90
54898;DHT22;40800;52.704;6.398;2022-07-10T15:00:52;20.10;99.90
54898;DHT22;40800;52.704;6.398;2022-07-10T15:03:17;20.00;99.90
54898;DHT22;40800;52.704;6.398;2022-07-10T15:05:43;20.10;99.90
54898;DHT22;40800;52.704;6.398;2022-07-10T15:08:08;20.10;99.90
54898;DHT22;40800;52.704;6.398;2022-07-10T15:10:34;20.10;99.90
54898;DHT22;40800;52.704;6.398;2022-07-10T15:12:59;20.00;99.90
54898;DHT22;40800;52.704;6.398;2022-07-10T15:15:25;19.80;99.90
54898;DHT22;40800;52.704;6.398;2022-07-10T15:17:51;19.70;99.90
54898;DHT22;40800;52.704;6.398;2022-07-10T15:20:16;19.60;99.90
54898;DHT22;40800;52.704;6.398;2022-07-10T15:22:44;19.70;99.90
54898;DHT22;40800;52.704;6.398;2022-07-10T15:25:10;19.70;99.90
54898;DHT22;40800;52.704;6.398;2022-07-10T15:27:35;19.70;99.90
54898;DHT22;40800;52.704;6.398;2022-07-10T15:30:01;19.50;99.90
54898;DHT22;40800;52.704;6.398;2022-07-10T15:32:26;19.50;99.90
54898;DHT22;40800;52.704;6.398;2022-07-10T15:34:52;19.50;99.90
54898;DHT22;40800;52.704;6.398;2022-07-10T15:37:18;19.50;99.90
54898;DHT22;40800;52.704;6.398;2022-07-10T15:39:44;19.40;99.90
54898;DHT22;40800;52.704;6.398;2022-07-10T15:42:10;19.40;99.90
54898;DHT22;40800;52.704;6.398;2022-07-10T15:44:36;19.30;99.90
54898;DHT22;40800;52.704;6.398;2022-07-10T15:47:02;19.30;99.90
54898;DHT22;40800;52.704;6.398;2022-07-10T15:49:27;19.30;99.90
54898;DHT22;40800;52.704;6.398;2022-07-10T15:51:53;19.20;99.90
54898;DHT22;40800;52.704;6.398;2022-07-10T15:54:20;19.10;99.90
54898;DHT22;40800;52.704;6.398;2022-07-10T15:56:46;18.90;99.90
54898;DHT22;40800;52.704;6.398;2022-07-10T15:59:11;18.80;99.90
54898;DHT22;40800;52.704;6.398;2022-07-10T16:01:37;18.80;99.90
54898;DHT22;40800;52.704;6.398;2022-07-10T16:04:02;18.70;99.90